sensor_id;sensor_type;location;lat;lon;timestamp;temperature;humidity
10384;DHT22;5238;43.508;4.980;2022-09-14T00:03:50;26.40;91.30
10384;DHT22;5238;43.508;4.980;2022-09-14T00:06:17;26.40;91.30
10384;DHT22;5238;43.508;4.980;2022-09-14T00:08:53;26.40;91.30
10384;DHT22;5238;43.508;4.980;2022-09-14T00:11:38;26.50;91.30
10384;DHT22;5238;43.508;4.980;2022-09-14T00:14:15;26.50;91.30
10384;DHT22;5238;43.508;4.980;2022-09-14T00:16:43;26.40;91.30
10384;DHT22;5238;43.508;4.980;2022-09-14T00:19:21;26.50;91.30
10384;DHT22;5238;43.508;4.980;2022-09-14T00:22:02;26.50;91.30
10384;DHT22;5238;43.508;4.980;2022-09-14T00:24:33;26.40;91.30
10384;DHT22;5238;43.508;4.980;2022-09-14T00:27:07;26.50;91.30
10384;DHT22;5238;43.508;4.980;2022-09-14T00:29:36;26.50;91.30
10384;DHT22;5238;43.508;4.980;2022-09-14T00:32:16;26.50;91.30
10384;DHT22;5238;43.508;4.980;2022-09-14T00:34:49;26.50;91.30
10384;DHT22;5238;43.508;4.980;2022-09-14T00:37:18;26.50;91.30
10384;DHT22;5238;43.508;4.980;2022-09-14T00:39:59;26.50;91.30
10384;DHT22;5238;43.508;4.980;2022-09-14T00:42:43;26.50;91.30
10384;DHT22;5238;43.508;4.980;2022-09-14T00:45:15;26.50;91.30
10384;DHT22;5238;43.508;4.980;2022-09-14T00:47:43;26.50;91.30
10384;DHT22;5238;43.508;4.980;2022-09-14T00:50:25;26.50;91.30
10384;DHT22;5238;43.508;4.980;2022-09-14T00:53:00;26.50;91.30
10384;DHT22;5238;43.508;4.980;2022-09-14T00:55:33;26.50;91.30
10384;DHT22;5238;43.508;4.980;2022-09-14T00:58:17;26.50;91.30
10384;DHT22;5238;43.508;4.980;2022-09-14T01:00:44;26.50;91.30
10384;DHT22;5238;43.508;4.980;2022-09-14T01:03:34;26.50;91.30
10384;DHT22;5238;43.508;4.980;2022-09-14T01:06:32;26.50;91.30
10384;DHT22;5238;43.508;4.980;2022-09-14T01:09:17;26.50;91.30
10384;DHT22;5238;43.508;4.980;2022-09-14T01:12:06;26.40;91.30
10384;DHT22;5238;43.508;4.980;2022-09-14T01:15:05;26.40;91.30
10384;DHT22;5238;43.508;4.980;2022-09-14T01:17:42;26.30;91.30
10384;DHT22;5238;43.508;4.980;2022-09-14T01:20:30;26.30;91.30
10384;DHT22;5238;43.508;4.980;2022-09-14T01:23:07;26.30;91.30
10384;DHT22;5238;43.508;4.980;2022-09-14T01:26:07;26.30;91.30
10384;DHT22;5238;43.508;4.980;2022-09-14T01:28:52;26.20;91.30
10384;DHT22;5238;43.508;4.980;2022-09-14T01:31:42;26.20;91.30
10384;DHT22;5238;43.508;4.980;2022-09-14T01:34:18;26.20;91.30
10384;DHT22;5238;43.508;4.980;2022-09-14T01:37:03;26.20;91.30
10384;DHT22;5238;43.508;4.980;2022-09-14T01:39:39;26.10;91.30
10384;DHT22;5238;43.508;4.980;2022-09-14T01:42:25;26.10;91.30
10384;DHT22;5238;43.508;4.980;2022-09-14T01:45:08;26.00;91.30
10384;DHT22;5238;43.508;4.980;2022-09-14T01:47:41;26.00;91.30
10384;DHT22;5238;43.508;4.980;2022-09-14T01:50:23;26.00;91.30
10384;DHT22;5238;43.508;4.980;2022-09-14T01:52:56;26.00;91.30
10384;DHT22;5238;43.508;4.980;2022-09-14T01:55:27;26.00;91.30
10384;DHT22;5238;43.508;4.980;2022-09-14T01:58:08;26.00;91.30
10384;DHT22;5238;43.508;4.980;2022-09-14T02:00:44;26.00;91.30
10384;DHT22;5238;43.508;4.980;2022-09-14T02:03:28;26.00;91.30
10384;DHT22;5238;43.508;4.980;2022-09-14T02:06:04;26.00;91.30
10384;DHT22;5238;43.508;4.980;2022-09-14T02:08:34;26.00;91.30
10384;DHT22;5238;43.508;4.980;2022-09-14T02:11:04;26.00;91.30
10384;DHT22;5238;43.508;4.980;2022-09-14T02:13:39;26.00;91.30
10384;DHT22;5238;43.508;4.980;2022-09-14T02:16:16;26.00;91.30
10384;DHT22;5238;43.508;4.980;2022-09-14T02:18:44;26.00;91.30
10384;DHT22;5238;43.508;4.980;2022-09-14T02:24:03;26.00;91.30
10384;DHT22;5238;43.508;4.980;2022-09-14T02:26:32;25.90;91.30
10384;DHT22;5238;43.508;4.980;2022-09-14T02:29:02;25.90;91.30
10384;DHT22;5238;43.508;4.980;2022-09-14T02:31:45;25.90;91.30
10384;DHT22;5238;43.508;4.980;2022-09-14T02:34:20;25.90;91.30
10384;DHT22;5238;43.508;4.980;2022-09-14T02:36:57;25.80;91.30
10384;DHT22;5238;43.508;4.980;2022-09-14T02:39:32;25.70;91.30
10384;DHT22;5238;43.508;4.980;2022-09-14T02:42:11;25.70;91.30
10384;DHT22;5238;43.508;4.980;2022-09-14T02:44:46;25.70;91.30
10384;DHT22;5238;43.508;4.980;2022-09-14T02:47:24;25.60;91.30
10384;DHT22;5238;43.508;4.980;2022-09-14T02:50:13;25.60;91.30
10384;DHT22;5238;43.508;4.980;2022-09-14T02:53:02;25.50;91.30
10384;DHT22;5238;43.508;4.980;2022-09-14T02:55:49;25.50;91.30
10384;DHT22;5238;43.508;4.980;2022-09-14T02:58:21;25.40;91.30
10384;DHT22;5238;43.508;4.980;2022-09-14T03:00:50;25.40;91.30
10384;DHT22;5238;43.508;4.980;2022-09-14T03:03:37;25.40;91.30
10384;DHT22;5238;43.508;4.980;2022-09-14T03:06:05;25.40;91.30
10384;DHT22;5238;43.508;4.980;2022-09-14T03:08:35;25.30;91.30
10384;DHT22;5238;43.508;4.980;2022-09-14T03:11:07;25.30;91.30
10384;DHT22;5238;43.508;4.980;2022-09-14T03:13:38;25.30;91.30
10384;DHT22;5238;43.508;4.980;2022-09-14T03:16:10;25.20;91.30
10384;DHT22;5238;43.508;4.980;2022-09-14T03:18:54;25.20;91.30
10384;DHT22;5238;43.508;4.980;2022-09-14T03:21:25;25.10;91.30
10384;DHT22;5238;43.508;4.980;2022-09-14T03:24:14;25.10;91.30
10384;DHT22;5238;43.508;4.980;2022-09-14T03:26:58;25.10;91.30
10384;DHT22;5238;43.508;4.980;2022-09-14T03:29:39;25.10;91.30
10384;DHT22;5238;43.508;4.980;2022-09-14T03:32:23;25.10;91.30
10384;DHT22;5238;43.508;4.980;2022-09-14T03:35:18;25.10;91.30
10384;DHT22;5238;43.508;4.980;2022-09-14T03:37:46;25.00;91.30
10384;DHT22;5238;43.508;4.980;2022-09-14T03:40:27;25.00;91.30
10384;DHT22;5238;43.508;4.980;2022-09-14T03:42:58;25.00;91.30
10384;DHT22;5238;43.508;4.980;2022-09-14T03:45:35;25.00;91.30
10384;DHT22;5238;43.508;4.980;2022-09-14T03:48:05;25.00;91.30
10384;DHT22;5238;43.508;4.980;2022-09-14T03:51:03;25.00;91.30
10384;DHT22;5238;43.508;4.980;2022-09-14T03:53:45;25.00;91.30
10384;DHT22;5238;43.508;4.980;2022-09-14T03:56:19;25.00;91.30
10384;DHT22;5238;43.508;4.980;2022-09-14T03:58:52;24.90;91.30
10384;DHT22;5238;43.508;4.980;2022-09-14T04:01:20;24.90;91.30
10384;DHT22;5238;43.508;4.980;2022-09-14T04:03:52;24.80;91.30
10384;DHT22;5238;43.508;4.980;2022-09-14T04:06:46;24.80;91.30
10384;DHT22;5238;43.508;4.980;2022-09-14T04:09:18;24.70;91.30
10384;DHT22;5238;43.508;4.980;2022-09-14T04:11:47;24.70;91.30
10384;DHT22;5238;43.508;4.980;2022-09-14T04:14:23;24.60;91.30
10384;DHT22;5238;43.508;4.980;2022-09-14T04:16:55;24.60;91.30
10384;DHT22;5238;43.508;4.980;2022-09-14T04:19:22;24.60;91.30
10384;DHT22;5238;43.508;4.980;2022-09-14T04:22:00;24.60;91.30
10384;DHT22;5238;43.508;4.980;2022-09-14T04:24:28;24.60;91.30
10384;DHT22;5238;43.508;4.980;2022-09-14T04:27:14;24.50;91.30
10384;DHT22;5238;43.508;4.980;2022-09-14T04:29:45;24.50;91.30
10384;DHT22;5238;43.508;4.980;2022-09-14T04:32:28;24.50;91.30
10384;DHT22;5238;43.508;4.980;2022-09-14T04:35:05;24.50;91.30
10384;DHT22;5238;43.508;4.980;2022-09-14T04:37:39;24.50;91.30
10384;DHT22;5238;43.508;4.980;2022-09-14T04:40:07;24.50;91.30
10384;DHT22;5238;43.508;4.980;2022-09-14T04:42:34;24.40;91.30
10384;DHT22;5238;43.508;4.980;2022-09-14T04:45:01;24.40;91.30
10384;DHT22;5238;43.508;4.980;2022-09-14T04:47:29;24.40;91.30
10384;DHT22;5238;43.508;4.980;2022-09-14T04:49:56;24.30;91.30
10384;DHT22;5238;43.508;4.980;2022-09-14T04:52:25;24.30;91.30
10384;DHT22;5238;43.508;4.980;2022-09-14T04:55:00;24.30;91.30
10384;DHT22;5238;43.508;4.980;2022-09-14T04:57:28;24.30;91.30
10384;DHT22;5238;43.508;4.980;2022-09-14T05:00:13;24.40;91.30
10384;DHT22;5238;43.508;4.980;2022-09-14T05:02:41;24.30;91.30
10384;DHT22;5238;43.508;4.980;2022-09-14T05:05:12;24.30;91.30
10384;DHT22;5238;43.508;4.980;2022-09-14T05:07:39;24.20;91.30
10384;DHT22;5238;43.508;4.980;2022-09-14T05:10:34;24.20;91.30
10384;DHT22;5238;43.508;4.980;2022-09-14T05:13:05;24.20;91.30
10384;DHT22;5238;43.508;4.980;2022-09-14T05:15:33;24.20;91.30
10384;DHT22;5238;43.508;4.980;2022-09-14T05:18:14;24.10;91.30
10384;DHT22;5238;43.508;4.980;2022-09-14T05:20:49;24.10;91.30
10384;DHT22;5238;43.508;4.980;2022-09-14T05:23:21;24.10;91.30
10384;DHT22;5238;43.508;4.980;2022-09-14T05:26:08;24.00;91.30
10384;DHT22;5238;43.508;4.980;2022-09-14T05:28:36;24.00;91.30
10384;DHT22;5238;43.508;4.980;2022-09-14T05:31:18;23.90;91.30
10384;DHT22;5238;43.508;4.980;2022-09-14T05:33:48;23.80;91.30
10384;DHT22;5238;43.508;4.980;2022-09-14T05:36:25;23.70;91.30
10384;DHT22;5238;43.508;4.980;2022-09-14T05:38:52;23.60;91.30
10384;DHT22;5238;43.508;4.980;2022-09-14T05:41:28;23.60;91.30
10384;DHT22;5238;43.508;4.980;2022-09-14T05:44:08;23.60;91.30
10384;DHT22;5238;43.508;4.980;2022-09-14T05:46:36;23.50;91.30
10384;DHT22;5238;43.508;4.980;2022-09-14T05:49:03;23.50;91.30
10384;DHT22;5238;43.508;4.980;2022-09-14T05:51:40;23.50;91.30
10384;DHT22;5238;43.508;4.980;2022-09-14T05:54:07;23.50;91.30
10384;DHT22;5238;43.508;4.980;2022-09-14T05:56:48;23.50;91.30
10384;DHT22;5238;43.508;4.980;2022-09-14T05:59:36;23.50;91.30
10384;DHT22;5238;43.508;4.980;2022-09-14T06:02:17;23.50;91.30
10384;DHT22;5238;43.508;4.980;2022-09-14T06:04:49;23.50;91.30
10384;DHT22;5238;43.508;4.980;2022-09-14T06:07:16;23.60;91.30
10384;DHT22;5238;43.508;4.980;2022-09-14T06:10:03;23.60;91.30
10384;DHT22;5238;43.508;4.980;2022-09-14T06:12:43;23.60;91.30
10384;DHT22;5238;43.508;4.980;2022-09-14T06:15:12;23.60;91.30
10384;DHT22;5238;43.508;4.980;2022-09-14T06:18:16;23.60;91.30
10384;DHT22;5238;43.508;4.980;2022-09-14T06:20:53;23.60;91.30
10384;DHT22;5238;43.508;4.980;2022-09-14T06:23:28;23.70;91.30
10384;DHT22;5238;43.508;4.980;2022-09-14T06:25:57;23.60;91.30
10384;DHT22;5238;43.508;4.980;2022-09-14T06:28:29;23.60;91.30
10384;DHT22;5238;43.508;4.980;2022-09-14T06:31:03;23.60;91.30
10384;DHT22;5238;43.508;4.980;2022-09-14T06:33:35;23.60;91.30
10384;DHT22;5238;43.508;4.980;2022-09-14T06:36:05;23.70;91.30
10384;DHT22;5238;43.508;4.980;2022-09-14T06:38:39;23.70;91.30
10384;DHT22;5238;43.508;4.980;2022-09-14T06:41:17;23.70;91.30
10384;DHT22;5238;43.508;4.980;2022-09-14T06:43:53;23.70;91.30
10384;DHT22;5238;43.508;4.980;2022-09-14T06:46:25;23.70;91.30
10384;DHT22;5238;43.508;4.980;2022-09-14T06:49:02;23.70;91.30
10384;DHT22;5238;43.508;4.980;2022-09-14T06:51:36;23.70;91.30
10384;DHT22;5238;43.508;4.980;2022-09-14T06:54:14;23.70;91.30
10384;DHT22;5238;43.508;4.980;2022-09-14T06:56:44;23.70;91.30
10384;DHT22;5238;43.508;4.980;2022-09-14T06:59:18;23.70;91.30
10384;DHT22;5238;43.508;4.980;2022-09-14T07:02:03;23.70;91.30
10384;DHT22;5238;43.508;4.980;2022-09-14T07:04:35;23.70;91.30
10384;DHT22;5238;43.508;4.980;2022-09-14T07:07:03;23.70;91.30
10384;DHT22;5238;43.508;4.980;2022-09-14T07:09:35;23.60;91.30
10384;DHT22;5238;43.508;4.980;2022-09-14T07:12:04;23.60;91.30
10384;DHT22;5238;43.508;4.980;2022-09-14T07:14:36;23.60;91.30
10384;DHT22;5238;43.508;4.980;2022-09-14T07:17:07;23.60;91.30
10384;DHT22;5238;43.508;4.980;2022-09-14T07:19:43;23.60;91.30
10384;DHT22;5238;43.508;4.980;2022-09-14T07:22:11;23.60;91.30
10384;DHT22;5238;43.508;4.980;2022-09-14T07:24:46;23.60;91.30
10384;DHT22;5238;43.508;4.980;2022-09-14T07:27:13;23.60;91.30
10384;DHT22;5238;43.508;4.980;2022-09-14T07:29:42;23.70;91.30
10384;DHT22;5238;43.508;4.980;2022-09-14T07:32:10;23.70;91.30
10384;DHT22;5238;43.508;4.980;2022-09-14T07:34:52;23.80;91.30
10384;DHT22;5238;43.508;4.980;2022-09-14T07:37:28;23.80;91.30
10384;DHT22;5238;43.508;4.980;2022-09-14T07:39:58;23.80;91.30
10384;DHT22;5238;43.508;4.980;2022-09-14T07:42:27;23.90;91.30
10384;DHT22;5238;43.508;4.980;2022-09-14T07:44:58;23.90;91.30
10384;DHT22;5238;43.508;4.980;2022-09-14T07:47:49;24.00;91.30
10384;DHT22;5238;43.508;4.980;2022-09-14T07:50:19;24.00;91.30
10384;DHT22;5238;43.508;4.980;2022-09-14T07:52:50;24.10;91.30
10384;DHT22;5238;43.508;4.980;2022-09-14T07:55:26;24.10;91.30
10384;DHT22;5238;43.508;4.980;2022-09-14T07:58:07;24.20;91.30
10384;DHT22;5238;43.508;4.980;2022-09-14T08:00:39;24.20;91.30
10384;DHT22;5238;43.508;4.980;2022-09-14T08:03:10;24.30;91.30
10384;DHT22;5238;43.508;4.980;2022-09-14T08:05:37;24.40;91.30
10384;DHT22;5238;43.508;4.980;2022-09-14T08:08:20;24.40;91.30
10384;DHT22;5238;43.508;4.980;2022-09-14T08:10:52;24.50;91.30
10384;DHT22;5238;43.508;4.980;2022-09-14T08:13:25;24.60;91.30
10384;DHT22;5238;43.508;4.980;2022-09-14T08:16:18;24.70;91.30
10384;DHT22;5238;43.508;4.980;2022-09-14T08:18:52;24.80;91.30
10384;DHT22;5238;43.508;4.980;2022-09-14T08:21:32;24.90;91.30
10384;DHT22;5238;43.508;4.980;2022-09-14T08:24:16;25.00;91.30
10384;DHT22;5238;43.508;4.980;2022-09-14T08:26:57;25.10;91.30
10384;DHT22;5238;43.508;4.980;2022-09-14T08:29:27;25.10;91.30
10384;DHT22;5238;43.508;4.980;2022-09-14T08:32:21;25.20;91.30
10384;DHT22;5238;43.508;4.980;2022-09-14T08:34:50;25.30;91.30
10384;DHT22;5238;43.508;4.980;2022-09-14T08:37:19;25.30;91.30
10384;DHT22;5238;43.508;4.980;2022-09-14T08:39:48;25.40;91.30
10384;DHT22;5238;43.508;4.980;2022-09-14T08:42:21;25.40;91.30
10384;DHT22;5238;43.508;4.980;2022-09-14T08:44:56;25.40;91.30
10384;DHT22;5238;43.508;4.980;2022-09-14T08:47:42;25.40;91.30
10384;DHT22;5238;43.508;4.980;2022-09-14T08:50:15;25.40;91.30
10384;DHT22;5238;43.508;4.980;2022-09-14T08:52:46;25.30;91.30
10384;DHT22;5238;43.508;4.980;2022-09-14T08:55:28;25.30;91.30
10384;DHT22;5238;43.508;4.980;2022-09-14T08:58:01;25.30;91.30
10384;DHT22;5238;43.508;4.980;2022-09-14T09:00:40;25.30;91.30
10384;DHT22;5238;43.508;4.980;2022-09-14T09:03:51;25.30;91.30
10384;DHT22;5238;43.508;4.980;2022-09-14T09:06:28;25.30;91.30
10384;DHT22;5238;43.508;4.980;2022-09-14T09:09:06;25.30;91.30
10384;DHT22;5238;43.508;4.980;2022-09-14T09:11:44;25.40;91.30
10384;DHT22;5238;43.508;4.980;2022-09-14T09:14:47;25.40;91.30
10384;DHT22;5238;43.508;4.980;2022-09-14T09:17:21;25.50;91.30
10384;DHT22;5238;43.508;4.980;2022-09-14T09:20:08;25.60;91.30
10384;DHT22;5238;43.508;4.980;2022-09-14T09:22:41;25.60;91.30
10384;DHT22;5238;43.508;4.980;2022-09-14T09:25:16;25.70;91.30
10384;DHT22;5238;43.508;4.980;2022-09-14T09:28:01;25.70;91.30
10384;DHT22;5238;43.508;4.980;2022-09-14T09:30:31;25.80;91.30
10384;DHT22;5238;43.508;4.980;2022-09-14T09:32:58;25.80;91.30
10384;DHT22;5238;43.508;4.980;2022-09-14T09:35:44;25.80;91.30
10384;DHT22;5238;43.508;4.980;2022-09-14T09:38:18;25.90;91.30
10384;DHT22;5238;43.508;4.980;2022-09-14T09:41:00;25.90;91.30
10384;DHT22;5238;43.508;4.980;2022-09-14T09:43:58;25.90;91.30
10384;DHT22;5238;43.508;4.980;2022-09-14T09:46:33;25.90;91.30
10384;DHT22;5238;43.508;4.980;2022-09-14T09:49:13;25.90;91.30
10384;DHT22;5238;43.508;4.980;2022-09-14T09:54:33;25.80;91.30
10384;DHT22;5238;43.508;4.980;2022-09-14T09:57:04;25.80;91.30
10384;DHT22;5238;43.508;4.980;2022-09-14T09:59:38;25.80;91.30
10384;DHT22;5238;43.508;4.980;2022-09-14T10:02:22;25.80;91.30
10384;DHT22;5238;43.508;4.980;2022-09-14T10:04:57;25.80;91.30
10384;DHT22;5238;43.508;4.980;2022-09-14T10:07:35;25.70;91.30
10384;DHT22;5238;43.508;4.980;2022-09-14T10:10:19;25.70;91.30
10384;DHT22;5238;43.508;4.980;2022-09-14T10:12:50;25.80;91.30
10384;DHT22;5238;43.508;4.980;2022-09-14T10:15:21;25.80;91.30
10384;DHT22;5238;43.508;4.980;2022-09-14T10:18:04;25.80;91.30
10384;DHT22;5238;43.508;4.980;2022-09-14T10:20:32;25.80;91.30
10384;DHT22;5238;43.508;4.980;2022-09-14T10:23:29;25.80;91.30
10384;DHT22;5238;43.508;4.980;2022-09-14T10:26:25;25.70;91.30
10384;DHT22;5238;43.508;4.980;2022-09-14T10:29:24;25.70;91.30
10384;DHT22;5238;43.508;4.980;2022-09-14T10:31:57;25.60;91.30
10384;DHT22;5238;43.508;4.980;2022-09-14T10:34:34;25.60;91.30
10384;DHT22;5238;43.508;4.980;2022-09-14T10:37:15;25.50;91.30
10384;DHT22;5238;43.508;4.980;2022-09-14T10:40:12;25.40;91.30
10384;DHT22;5238;43.508;4.980;2022-09-14T10:42:53;25.40;91.30
10384;DHT22;5238;43.508;4.980;2022-09-14T10:45:33;25.40;91.30
10384;DHT22;5238;43.508;4.980;2022-09-14T10:48:21;25.40;91.30
10384;DHT22;5238;43.508;4.980;2022-09-14T10:51:03;25.40;91.30
10384;DHT22;5238;43.508;4.980;2022-09-14T10:53:44;25.40;91.30
10384;DHT22;5238;43.508;4.980;2022-09-14T10:56:22;25.50;91.30
10384;DHT22;5238;43.508;4.980;2022-09-14T10:59:12;25.50;91.30
10384;DHT22;5238;43.508;4.980;2022-09-14T11:05:03;25.50;91.30
10384;DHT22;5238;43.508;4.980;2022-09-14T11:07:38;25.50;91.30
10384;DHT22;5238;43.508;4.980;2022-09-14T11:10:16;25.50;91.30
10384;DHT22;5238;43.508;4.980;2022-09-14T11:12:53;25.60;91.30
10384;DHT22;5238;43.508;4.980;2022-09-14T11:15:30;25.70;91.30
10384;DHT22;5238;43.508;4.980;2022-09-14T11:18:09;25.70;91.30
10384;DHT22;5238;43.508;4.980;2022-09-14T11:20:46;25.80;91.30
10384;DHT22;5238;43.508;4.980;2022-09-14T11:23:24;25.90;91.30
10384;DHT22;5238;43.508;4.980;2022-09-14T11:25:59;26.00;91.30
10384;DHT22;5238;43.508;4.980;2022-09-14T11:28:36;26.10;91.30
10384;DHT22;5238;43.508;4.980;2022-09-14T11:31:17;26.20;91.30
10384;DHT22;5238;43.508;4.980;2022-09-14T11:33:47;26.30;91.30
10384;DHT22;5238;43.508;4.980;2022-09-14T11:36:20;26.40;91.30
10384;DHT22;5238;43.508;4.980;2022-09-14T11:38:53;26.50;91.30
10384;DHT22;5238;43.508;4.980;2022-09-14T11:41:29;26.50;91.30
10384;DHT22;5238;43.508;4.980;2022-09-14T11:44:02;26.60;91.30
10384;DHT22;5238;43.508;4.980;2022-09-14T11:46:33;26.60;91.30
10384;DHT22;5238;43.508;4.980;2022-09-14T11:49:11;26.60;91.30
10384;DHT22;5238;43.508;4.980;2022-09-14T11:51:50;26.60;91.30
10384;DHT22;5238;43.508;4.980;2022-09-14T11:54:21;26.60;91.30
10384;DHT22;5238;43.508;4.980;2022-09-14T11:56:50;26.60;91.30
10384;DHT22;5238;43.508;4.980;2022-09-14T12:02:59;26.70;91.30
10384;DHT22;5238;43.508;4.980;2022-09-14T12:05:51;26.80;91.30
10384;DHT22;5238;43.508;4.980;2022-09-14T12:08:37;26.90;91.30
10384;DHT22;5238;43.508;4.980;2022-09-14T12:11:37;27.00;91.30
10384;DHT22;5238;43.508;4.980;2022-09-14T12:17:15;27.30;91.30
10384;DHT22;5238;43.508;4.980;2022-09-14T12:19:44;27.50;91.30
10384;DHT22;5238;43.508;4.980;2022-09-14T12:22:27;27.60;91.30
10384;DHT22;5238;43.508;4.980;2022-09-14T12:25:21;27.70;91.30
10384;DHT22;5238;43.508;4.980;2022-09-14T12:27:50;27.80;91.30
10384;DHT22;5238;43.508;4.980;2022-09-14T12:31:06;27.90;91.30
10384;DHT22;5238;43.508;4.980;2022-09-14T12:36:56;28.00;91.30
10384;DHT22;5238;43.508;4.980;2022-09-14T12:39:29;28.10;91.30
10384;DHT22;5238;43.508;4.980;2022-09-14T12:42:28;28.10;91.30
10384;DHT22;5238;43.508;4.980;2022-09-14T12:44:58;28.10;91.30
10384;DHT22;5238;43.508;4.980;2022-09-14T12:48:10;28.10;91.30
10384;DHT22;5238;43.508;4.980;2022-09-14T12:50:50;28.20;91.30
10384;DHT22;5238;43.508;4.980;2022-09-14T12:53:28;28.30;91.30
10384;DHT22;5238;43.508;4.980;2022-09-14T12:56:04;28.30;91.30
10384;DHT22;5238;43.508;4.980;2022-09-14T12:59:01;28.30;91.30
10384;DHT22;5238;43.508;4.980;2022-09-14T13:01:45;28.40;91.30
10384;DHT22;5238;43.508;4.980;2022-09-14T13:04:27;28.40;91.30
10384;DHT22;5238;43.508;4.980;2022-09-14T13:07:24;28.40;91.30
10384;DHT22;5238;43.508;4.980;2022-09-14T13:09:56;28.40;91.30
10384;DHT22;5238;43.508;4.980;2022-09-14T13:12:33;28.40;91.30
10384;DHT22;5238;43.508;4.980;2022-09-14T13:15:16;28.40;91.30
10384;DHT22;5238;43.508;4.980;2022-09-14T13:17:57;28.40;91.30
10384;DHT22;5238;43.508;4.980;2022-09-14T13:20:26;28.40;91.30
10384;DHT22;5238;43.508;4.980;2022-09-14T13:22:59;28.50;91.30
10384;DHT22;5238;43.508;4.980;2022-09-14T13:25:32;28.50;91.30
10384;DHT22;5238;43.508;4.980;2022-09-14T13:28:06;28.60;91.30
10384;DHT22;5238;43.508;4.980;2022-09-14T13:30:34;28.60;91.30
10384;DHT22;5238;43.508;4.980;2022-09-14T13:33:02;28.70;91.30
10384;DHT22;5238;43.508;4.980;2022-09-14T13:35:35;28.70;91.30
10384;DHT22;5238;43.508;4.980;2022-09-14T13:38:22;28.70;91.30
10384;DHT22;5238;43.508;4.980;2022-09-14T13:40:54;28.80;91.30
10384;DHT22;5238;43.508;4.980;2022-09-14T13:43:23;28.90;91.30
10384;DHT22;5238;43.508;4.980;2022-09-14T13:45:51;28.90;91.30
10384;DHT22;5238;43.508;4.980;2022-09-14T13:48:21;28.90;91.30
10384;DHT22;5238;43.508;4.980;2022-09-14T13:51:04;28.90;91.30
10384;DHT22;5238;43.508;4.980;2022-09-14T13:53:42;28.90;91.30
10384;DHT22;5238;43.508;4.980;2022-09-14T13:56:27;28.80;91.30
10384;DHT22;5238;43.508;4.980;2022-09-14T13:59:17;28.80;91.30
10384;DHT22;5238;43.508;4.980;2022-09-14T14:01:55;28.90;91.30
10384;DHT22;5238;43.508;4.980;2022-09-14T14:04:37;28.90;91.30
10384;DHT22;5238;43.508;4.980;2022-09-14T14:07:17;28.90;91.30
10384;DHT22;5238;43.508;4.980;2022-09-14T14:09:50;29.00;91.30
10384;DHT22;5238;43.508;4.980;2022-09-14T14:12:27;29.00;91.30
10384;DHT22;5238;43.508;4.980;2022-09-14T14:14:57;29.00;91.30
10384;DHT22;5238;43.508;4.980;2022-09-14T14:17:35;29.00;91.30
10384;DHT22;5238;43.508;4.980;2022-09-14T14:20:36;29.10;91.30
10384;DHT22;5238;43.508;4.980;2022-09-14T14:23:20;29.00;91.30
10384;DHT22;5238;43.508;4.980;2022-09-14T14:25:52;29.10;91.30
10384;DHT22;5238;43.508;4.980;2022-09-14T14:28:26;29.10;91.30
10384;DHT22;5238;43.508;4.980;2022-09-14T14:31:12;29.10;91.30
10384;DHT22;5238;43.508;4.980;2022-09-14T14:33:45;29.10;91.30
10384;DHT22;5238;43.508;4.980;2022-09-14T14:36:14;29.20;91.30
10384;DHT22;5238;43.508;4.980;2022-09-14T14:38:58;29.20;91.30
10384;DHT22;5238;43.508;4.980;2022-09-14T14:41:57;29.20;91.30
10384;DHT22;5238;43.508;4.980;2022-09-14T14:44:27;29.30;91.30
10384;DHT22;5238;43.508;4.980;2022-09-14T14:46:56;29.30;91.30
10384;DHT22;5238;43.508;4.980;2022-09-14T14:49:31;29.20;91.30
10384;DHT22;5238;43.508;4.980;2022-09-14T14:52:02;29.20;91.30
10384;DHT22;5238;43.508;4.980;2022-09-14T14:54:30;29.20;91.30
10384;DHT22;5238;43.508;4.980;2022-09-14T14:57:02;29.20;91.30
10384;DHT22;5238;43.508;4.980;2022-09-14T14:59:29;29.20;91.30
10384;DHT22;5238;43.508;4.980;2022-09-14T15:02:05;29.20;91.30
10384;DHT22;5238;43.508;4.980;2022-09-14T15:04:39;29.20;91.30
10384;DHT22;5238;43.508;4.980;2022-09-14T15:07:09;29.20;91.30
10384;DHT22;5238;43.508;4.980;2022-09-14T15:09:37;29.20;91.30
10384;DHT22;5238;43.508;4.980;2022-09-14T15:12:15;29.20;91.30
10384;DHT22;5238;43.508;4.980;2022-09-14T15:14:54;29.20;91.30
10384;DHT22;5238;43.508;4.980;2022-09-14T15:17:21;29.30;91.30
10384;DHT22;5238;43.508;4.980;2022-09-14T15:19:50;29.30;91.30
10384;DHT22;5238;43.508;4.980;2022-09-14T15:22:20;29.40;91.30
10384;DHT22;5238;43.508;4.980;2022-09-14T15:24:53;29.40;91.30
10384;DHT22;5238;43.508;4.980;2022-09-14T15:27:24;29.50;91.30
10384;DHT22;5238;43.508;4.980;2022-09-14T15:29:53;29.50;91.30
10384;DHT22;5238;43.508;4.980;2022-09-14T15:32:21;29.50;91.30
10384;DHT22;5238;43.508;4.980;2022-09-14T15:35:04;29.60;91.30
10384;DHT22;5238;43.508;4.980;2022-09-14T15:37:31;29.70;91.30
10384;DHT22;5238;43.508;4.980;2022-09-14T15:39:58;29.70;91.30
10384;DHT22;5238;43.508;4.980;2022-09-14T15:42:27;29.70;91.30
10384;DHT22;5238;43.508;4.980;2022-09-14T15:44:54;29.80;91.30
10384;DHT22;5238;43.508;4.980;2022-09-14T15:47:21;29.70;91.30
10384;DHT22;5238;43.508;4.980;2022-09-14T15:49:50;29.70;91.30
10384;DHT22;5238;43.508;4.980;2022-09-14T15:52:17;29.70;91.30
10384;DHT22;5238;43.508;4.980;2022-09-14T15:54:45;29.60;91.30
10384;DHT22;5238;43.508;4.980;2022-09-14T15:57:13;29.60;91.30
10384;DHT22;5238;43.508;4.980;2022-09-14T15:59:41;29.50;91.30
10384;DHT22;5238;43.508;4.980;2022-09-14T16:02:08;29.50;91.30
10384;DHT22;5238;43.508;4.980;2022-09-14T16:04:37;29.50;91.30
10384;DHT22;5238;43.508;4.980;2022-09-14T16:07:05;29.50;91.30
10384;DHT22;5238;43.508;4.980;2022-09-14T16:09:34;29.40;91.30
10384;DHT22;5238;43.508;4.980;2022-09-14T16:12:02;29.40;91.30
10384;DHT22;5238;43.508;4.980;2022-09-14T16:14:29;29.40;91.30
10384;DHT22;5238;43.508;4.980;2022-09-14T16:16:58;29.40;91.30
10384;DHT22;5238;43.508;4.980;2022-09-14T16:19:26;29.30;91.30
10384;DHT22;5238;43.508;4.980;2022-09-14T16:21:53;29.30;91.30
10384;DHT22;5238;43.508;4.980;2022-09-14T16:24:22;29.20;91.30
10384;DHT22;5238;43.508;4.980;2022-09-14T16:26:49;29.20;91.30
10384;DHT22;5238;43.508;4.980;2022-09-14T16:29:18;29.10;91.30
10384;DHT22;5238;43.508;4.980;2022-09-14T16:31:46;29.00;91.30
10384;DHT22;5238;43.508;4.980;2022-09-14T16:34:18;29.00;91.30
10384;DHT22;5238;43.508;4.980;2022-09-14T16:36:46;28.90;91.30
10384;DHT22;5238;43.508;4.980;2022-09-14T16:39:15;28.80;91.30
10384;DHT22;5238;43.508;4.980;2022-09-14T16:41:43;28.70;91.30
10384;DHT22;5238;43.508;4.980;2022-09-14T16:44:12;28.60;91.30
10384;DHT22;5238;43.508;4.980;2022-09-14T16:46:40;28.60;91.30
10384;DHT22;5238;43.508;4.980;2022-09-14T16:49:08;28.50;91.30
10384;DHT22;5238;43.508;4.980;2022-09-14T16:51:37;28.40;91.30
10384;DHT22;5238;43.508;4.980;2022-09-14T16:54:04;28.30;91.30
10384;DHT22;5238;43.508;4.980;2022-09-14T16:56:33;28.20;91.30
10384;DHT22;5238;43.508;4.980;2022-09-14T16:59:01;28.20;91.30
10384;DHT22;5238;43.508;4.980;2022-09-14T17:01:30;28.10;91.30
10384;DHT22;5238;43.508;4.980;2022-09-14T17:03:58;28.00;91.30